sensor_id;sensor_type;location;lat;lon;timestamp;P1;durP1;ratioP1;P2;durP2;ratioP2
1987;SDS011;12775;46.994;15.498;2022-10-26T00:00:44;3.90;;;3.50;;
1987;SDS011;12775;46.994;15.498;2022-10-26T00:03:11;4.92;;;3.92;;
1987;SDS011;12775;46.994;15.498;2022-10-26T00:05:38;3.54;;;3.24;;
1987;SDS011;12775;46.994;15.498;2022-10-26T00:08:04;11.26;;;3.88;;
1987;SDS011;12775;46.994;15.498;2022-10-26T00:10:33;5.02;;;4.04;;
1987;SDS011;12775;46.994;15.498;2022-10-26T00:12:58;4.08;;;3.68;;
1987;SDS011;12775;46.994;15.498;2022-10-26T00:15:25;4.10;;;3.70;;
1987;SDS011;12775;46.994;15.498;2022-10-26T00:17:52;6.00;;;4.50;;
1987;SDS011;12775;46.994;15.498;2022-10-26T00:20:19;5.66;;;3.54;;
1987;SDS011;12775;46.994;15.498;2022-10-26T00:22:46;4.06;;;3.72;;
1987;SDS011;12775;46.994;15.498;2022-10-26T00:25:12;3.74;;;3.40;;
1987;SDS011;12775;46.994;15.498;2022-10-26T00:27:39;4.72;;;3.72;;
1987;SDS011;12775;46.994;15.498;2022-10-26T00:30:05;8.56;;;3.40;;
1987;SDS011;12775;46.994;15.498;2022-10-26T00:32:32;5.02;;;4.44;;
1987;SDS011;12775;46.994;15.498;2022-10-26T00:34:59;5.12;;;4.62;;
1987;SDS011;12775;46.994;15.498;2022-10-26T00:37:26;4.32;;;3.80;;
1987;SDS011;12775;46.994;15.498;2022-10-26T00:39:52;5.14;;;3.68;;
1987;SDS011;12775;46.994;15.498;2022-10-26T00:42:20;8.70;;;3.22;;
1987;SDS011;12775;46.994;15.498;2022-10-26T00:47:31;3.86;;;3.54;;
1987;SDS011;12775;46.994;15.498;2022-10-26T00:49:57;4.10;;;3.04;;
1987;SDS011;12775;46.994;15.498;2022-10-26T00:52:23;4.54;;;3.26;;
1987;SDS011;12775;46.994;15.498;2022-10-26T00:54:50;3.70;;;3.16;;
1987;SDS011;12775;46.994;15.498;2022-10-26T00:57:16;5.10;;;3.52;;
1987;SDS011;12775;46.994;15.498;2022-10-26T00:59:43;5.94;;;3.46;;
1987;SDS011;12775;46.994;15.498;2022-10-26T01:02:10;3.80;;;3.02;;
1987;SDS011;12775;46.994;15.498;2022-10-26T01:04:36;4.32;;;3.20;;
1987;SDS011;12775;46.994;15.498;2022-10-26T01:07:03;3.58;;;3.18;;
1987;SDS011;12775;46.994;15.498;2022-10-26T01:09:29;3.84;;;3.40;;
1987;SDS011;12775;46.994;15.498;2022-10-26T01:11:56;3.28;;;2.98;;
1987;SDS011;12775;46.994;15.498;2022-10-26T01:14:24;3.74;;;3.16;;
1987;SDS011;12775;46.994;15.498;2022-10-26T01:16:54;7.56;;;4.68;;
1987;SDS011;12775;46.994;15.498;2022-10-26T01:20:06;5.82;;;3.82;;
1987;SDS011;12775;46.994;15.498;2022-10-26T01:22:13;6.74;;;3.52;;
1987;SDS011;12775;46.994;15.498;2022-10-26T01:25:14;5.48;;;3.28;;
1987;SDS011;12775;46.994;15.498;2022-10-26T01:27:31;2.94;;;2.74;;
1987;SDS011;12775;46.994;15.498;2022-10-26T01:30:25;4.18;;;3.34;;
1987;SDS011;12775;46.994;15.498;2022-10-26T01:32:56;8.82;;;3.86;;
1987;SDS011;12775;46.994;15.498;2022-10-26T01:35:22;7.72;;;3.36;;
1987;SDS011;12775;46.994;15.498;2022-10-26T01:38:05;6.32;;;2.92;;
1987;SDS011;12775;46.994;15.498;2022-10-26T01:40:34;5.84;;;4.48;;
1987;SDS011;12775;46.994;15.498;2022-10-26T01:43:00;4.96;;;3.80;;
1987;SDS011;12775;46.994;15.498;2022-10-26T01:45:26;3.50;;;3.20;;
1987;SDS011;12775;46.994;15.498;2022-10-26T01:47:52;4.74;;;3.68;;
1987;SDS011;12775;46.994;15.498;2022-10-26T01:50:19;4.66;;;3.78;;
1987;SDS011;12775;46.994;15.498;2022-10-26T01:52:48;3.34;;;3.04;;
1987;SDS011;12775;46.994;15.498;2022-10-26T01:57:53;5.98;;;3.04;;
1987;SDS011;12775;46.994;15.498;2022-10-26T02:00:20;5.18;;;3.40;;
1987;SDS011;12775;46.994;15.498;2022-10-26T02:02:50;6.18;;;3.80;;
1987;SDS011;12775;46.994;15.498;2022-10-26T02:05:23;5.00;;;4.08;;
1987;SDS011;12775;46.994;15.498;2022-10-26T02:08:04;4.70;;;3.70;;
1987;SDS011;12775;46.994;15.498;2022-10-26T02:11:11;6.76;;;3.76;;
1987;SDS011;12775;46.994;15.498;2022-10-26T02:13:30;5.32;;;3.42;;
1987;SDS011;12775;46.994;15.498;2022-10-26T02:18:34;3.64;;;3.36;;
1987;SDS011;12775;46.994;15.498;2022-10-26T02:21:02;4.80;;;3.44;;
1987;SDS011;12775;46.994;15.498;2022-10-26T02:23:29;4.56;;;3.16;;
1987;SDS011;12775;46.994;15.498;2022-10-26T02:25:57;6.44;;;3.10;;
1987;SDS011;12775;46.994;15.498;2022-10-26T02:28:26;3.62;;;3.00;;
1987;SDS011;12775;46.994;15.498;2022-10-26T02:30:51;3.62;;;3.20;;
1987;SDS011;12775;46.994;15.498;2022-10-26T02:33:17;3.50;;;3.20;;
1987;SDS011;12775;46.994;15.498;2022-10-26T02:35:44;3.38;;;3.12;;
1987;SDS011;12775;46.994;15.498;2022-10-26T02:38:10;3.68;;;3.32;;
1987;SDS011;12775;46.994;15.498;2022-10-26T02:40:37;5.98;;;2.78;;
1987;SDS011;12775;46.994;15.498;2022-10-26T02:43:05;7.50;;;2.78;;
1987;SDS011;12775;46.994;15.498;2022-10-26T02:45:32;4.62;;;2.54;;
1987;SDS011;12775;46.994;15.498;2022-10-26T02:47:58;7.30;;;2.90;;
1987;SDS011;12775;46.994;15.498;2022-10-26T02:50:28;3.16;;;2.92;;
1987;SDS011;12775;46.994;15.498;2022-10-26T02:53:06;3.66;;;3.36;;
1987;SDS011;12775;46.994;15.498;2022-10-26T02:55:37;3.22;;;2.92;;
1987;SDS011;12775;46.994;15.498;2022-10-26T02:58:03;7.10;;;2.92;;
1987;SDS011;12775;46.994;15.498;2022-10-26T03:00:29;3.10;;;2.90;;
1987;SDS011;12775;46.994;15.498;2022-10-26T03:02:57;4.20;;;2.76;;
1987;SDS011;12775;46.994;15.498;2022-10-26T03:05:23;3.16;;;2.58;;
1987;SDS011;12775;46.994;15.498;2022-10-26T03:07:50;2.64;;;2.44;;
1987;SDS011;12775;46.994;15.498;2022-10-26T03:10:17;2.66;;;2.46;;
1987;SDS011;12775;46.994;15.498;2022-10-26T03:12:43;3.94;;;2.88;;
1987;SDS011;12775;46.994;15.498;2022-10-26T03:15:10;2.64;;;2.44;;
1987;SDS011;12775;46.994;15.498;2022-10-26T03:17:37;3.40;;;2.70;;
1987;SDS011;12775;46.994;15.498;2022-10-26T03:20:03;3.32;;;3.04;;
1987;SDS011;12775;46.994;15.498;2022-10-26T03:22:30;6.66;;;3.18;;
1987;SDS011;12775;46.994;15.498;2022-10-26T03:24:57;3.02;;;2.82;;
1987;SDS011;12775;46.994;15.498;2022-10-26T03:27:24;3.66;;;2.70;;
1987;SDS011;12775;46.994;15.498;2022-10-26T03:29:50;3.74;;;2.58;;
1987;SDS011;12775;46.994;15.498;2022-10-26T03:32:17;5.14;;;3.58;;
1987;SDS011;12775;46.994;15.498;2022-10-26T03:34:43;7.06;;;3.44;;
1987;SDS011;12775;46.994;15.498;2022-10-26T03:37:10;8.94;;;3.32;;
1987;SDS011;12775;46.994;15.498;2022-10-26T03:39:37;7.36;;;3.40;;
1987;SDS011;12775;46.994;15.498;2022-10-26T03:42:03;4.04;;;3.64;;
1987;SDS011;12775;46.994;15.498;2022-10-26T03:44:30;8.94;;;3.58;;
1987;SDS011;12775;46.994;15.498;2022-10-26T03:46:56;3.24;;;2.90;;
1987;SDS011;12775;46.994;15.498;2022-10-26T03:49:23;3.04;;;2.84;;
1987;SDS011;12775;46.994;15.498;2022-10-26T03:51:50;5.64;;;3.10;;
1987;SDS011;12775;46.994;15.498;2022-10-26T03:54:16;12.16;;;3.90;;
1987;SDS011;12775;46.994;15.498;2022-10-26T03:56:43;9.52;;;3.74;;
1987;SDS011;12775;46.994;15.498;2022-10-26T03:59:10;8.48;;;3.28;;
1987;SDS011;12775;46.994;15.498;2022-10-26T04:01:37;5.54;;;3.56;;
1987;SDS011;12775;46.994;15.498;2022-10-26T04:04:03;7.64;;;3.46;;
1987;SDS011;12775;46.994;15.498;2022-10-26T04:06:30;12.28;;;2.94;;
1987;SDS011;12775;46.994;15.498;2022-10-26T04:08:56;8.52;;;2.98;;
1987;SDS011;12775;46.994;15.498;2022-10-26T04:11:23;2.54;;;2.38;;
1987;SDS011;12775;46.994;15.498;2022-10-26T04:13:50;3.32;;;2.54;;
1987;SDS011;12775;46.994;15.498;2022-10-26T04:16:16;3.04;;;2.68;;
1987;SDS011;12775;46.994;15.498;2022-10-26T04:18:43;2.94;;;2.74;;
1987;SDS011;12775;46.994;15.498;2022-10-26T04:21:10;3.80;;;2.94;;
1987;SDS011;12775;46.994;15.498;2022-10-26T04:23:37;3.92;;;2.78;;
1987;SDS011;12775;46.994;15.498;2022-10-26T04:26:04;3.08;;;2.70;;
1987;SDS011;12775;46.994;15.498;2022-10-26T04:28:30;2.52;;;2.32;;
1987;SDS011;12775;46.994;15.498;2022-10-26T04:30:58;3.14;;;2.78;;
1987;SDS011;12775;46.994;15.498;2022-10-26T04:33:24;3.24;;;2.72;;
1987;SDS011;12775;46.994;15.498;2022-10-26T04:35:51;4.38;;;4.08;;
1987;SDS011;12775;46.994;15.498;2022-10-26T04:38:18;3.14;;;2.94;;
1987;SDS011;12775;46.994;15.498;2022-10-26T04:40:44;4.54;;;3.92;;
1987;SDS011;12775;46.994;15.498;2022-10-26T04:43:11;5.84;;;5.22;;
1987;SDS011;12775;46.994;15.498;2022-10-26T04:45:38;4.52;;;4.12;;
1987;SDS011;12775;46.994;15.498;2022-10-26T04:48:05;5.22;;;4.72;;
1987;SDS011;12775;46.994;15.498;2022-10-26T04:50:31;5.04;;;4.44;;
1987;SDS011;12775;46.994;15.498;2022-10-26T04:52:58;5.24;;;4.74;;
1987;SDS011;12775;46.994;15.498;2022-10-26T04:55:24;4.64;;;4.22;;
1987;SDS011;12775;46.994;15.498;2022-10-26T04:57:51;5.40;;;4.90;;
1987;SDS011;12775;46.994;15.498;2022-10-26T05:00:18;4.82;;;4.30;;
1987;SDS011;12775;46.994;15.498;2022-10-26T05:02:44;7.20;;;4.04;;
1987;SDS011;12775;46.994;15.498;2022-10-26T05:05:11;4.52;;;4.12;;
1987;SDS011;12775;46.994;15.498;2022-10-26T05:07:37;8.24;;;5.12;;
1987;SDS011;12775;46.994;15.498;2022-10-26T05:10:04;3.62;;;3.42;;
1987;SDS011;12775;46.994;15.498;2022-10-26T05:12:31;17.90;;;5.06;;
1987;SDS011;12775;46.994;15.498;2022-10-26T05:14:58;27.02;;;5.04;;
1987;SDS011;12775;46.994;15.498;2022-10-26T05:17:25;32.68;;;5.28;;
1987;SDS011;12775;46.994;15.498;2022-10-26T05:19:51;20.96;;;4.78;;
1987;SDS011;12775;46.994;15.498;2022-10-26T05:22:18;6.78;;;4.72;;
1987;SDS011;12775;46.994;15.498;2022-10-26T05:24:44;10.78;;;4.82;;
1987;SDS011;12775;46.994;15.498;2022-10-26T05:27:11;3.46;;;3.14;;
1987;SDS011;12775;46.994;15.498;2022-10-26T05:29:37;9.12;;;3.84;;
1987;SDS011;12775;46.994;15.498;2022-10-26T05:32:04;14.92;;;4.94;;
1987;SDS011;12775;46.994;15.498;2022-10-26T05:34:30;14.94;;;4.60;;
1987;SDS011;12775;46.994;15.498;2022-10-26T05:36:57;8.54;;;4.56;;
1987;SDS011;12775;46.994;15.498;2022-10-26T05:39:24;13.48;;;4.30;;
1987;SDS011;12775;46.994;15.498;2022-10-26T05:41:50;4.64;;;3.14;;
1987;SDS011;12775;46.994;15.498;2022-10-26T05:44:17;3.68;;;3.36;;
1987;SDS011;12775;46.994;15.498;2022-10-26T05:46:45;13.12;;;3.72;;
1987;SDS011;12775;46.994;15.498;2022-10-26T05:49:10;6.46;;;3.24;;
1987;SDS011;12775;46.994;15.498;2022-10-26T05:51:37;4.04;;;3.54;;
1987;SDS011;12775;46.994;15.498;2022-10-26T05:54:03;3.22;;;3.02;;
1987;SDS011;12775;46.994;15.498;2022-10-26T05:56:35;3.22;;;2.94;;
1987;SDS011;12775;46.994;15.498;2022-10-26T05:59:02;3.88;;;3.04;;
1987;SDS011;12775;46.994;15.498;2022-10-26T06:01:33;3.32;;;3.02;;
1987;SDS011;12775;46.994;15.498;2022-10-26T06:04:19;3.58;;;3.20;;
1987;SDS011;12775;46.994;15.498;2022-10-26T06:06:46;3.36;;;3.06;;
1987;SDS011;12775;46.994;15.498;2022-10-26T06:09:13;5.14;;;3.30;;
1987;SDS011;12775;46.994;15.498;2022-10-26T06:11:39;4.26;;;3.08;;
1987;SDS011;12775;46.994;15.498;2022-10-26T06:14:07;3.60;;;3.06;;
1987;SDS011;12775;46.994;15.498;2022-10-26T06:16:37;5.00;;;4.36;;
1987;SDS011;12775;46.994;15.498;2022-10-26T06:27:04;11.64;;;9.26;;
1987;SDS011;12775;46.994;15.498;2022-10-26T06:29:36;11.76;;;9.72;;
1987;SDS011;12775;46.994;15.498;2022-10-26T06:31:58;9.54;;;7.32;;
1987;SDS011;12775;46.994;15.498;2022-10-26T06:34:26;7.00;;;6.40;;
1987;SDS011;12775;46.994;15.498;2022-10-26T06:36:51;8.64;;;7.74;;
1987;SDS011;12775;46.994;15.498;2022-10-26T06:39:18;6.62;;;6.12;;
1987;SDS011;12775;46.994;15.498;2022-10-26T06:41:45;4.38;;;4.08;;
1987;SDS011;12775;46.994;15.498;2022-10-26T06:44:18;5.00;;;4.40;;
1987;SDS011;12775;46.994;15.498;2022-10-26T06:46:40;5.60;;;5.10;;
1987;SDS011;12775;46.994;15.498;2022-10-26T06:49:15;5.78;;;5.18;;
1987;SDS011;12775;46.994;15.498;2022-10-26T06:51:42;8.80;;;7.98;;
1987;SDS011;12775;46.994;15.498;2022-10-26T06:54:11;7.72;;;7.00;;
1987;SDS011;12775;46.994;15.498;2022-10-26T06:56:37;6.62;;;5.96;;
1987;SDS011;12775;46.994;15.498;2022-10-26T06:59:05;6.20;;;5.56;;
1987;SDS011;12775;46.994;15.498;2022-10-26T07:01:32;5.58;;;5.00;;
1987;SDS011;12775;46.994;15.498;2022-10-26T07:03:59;5.20;;;4.80;;
1987;SDS011;12775;46.994;15.498;2022-10-26T07:06:26;5.32;;;4.80;;
1987;SDS011;12775;46.994;15.498;2022-10-26T07:08:53;4.96;;;4.56;;
1987;SDS011;12775;46.994;15.498;2022-10-26T07:11:20;5.92;;;4.28;;
1987;SDS011;12775;46.994;15.498;2022-10-26T07:13:46;4.78;;;4.32;;
1987;SDS011;12775;46.994;15.498;2022-10-26T07:16:13;3.80;;;3.52;;
1987;SDS011;12775;46.994;15.498;2022-10-26T07:18:39;4.26;;;3.92;;
1987;SDS011;12775;46.994;15.498;2022-10-26T07:21:06;10.96;;;3.94;;
1987;SDS011;12775;46.994;15.498;2022-10-26T07:23:33;5.04;;;3.56;;
1987;SDS011;12775;46.994;15.498;2022-10-26T07:25:59;6.64;;;6.10;;
1987;SDS011;12775;46.994;15.498;2022-10-26T07:28:26;6.00;;;5.54;;
1987;SDS011;12775;46.994;15.498;2022-10-26T07:30:52;5.90;;;5.40;;
1987;SDS011;12775;46.994;15.498;2022-10-26T07:33:19;8.02;;;6.22;;
1987;SDS011;12775;46.994;15.498;2022-10-26T07:35:47;7.24;;;6.54;;
1987;SDS011;12775;46.994;15.498;2022-10-26T07:38:13;7.92;;;6.32;;
1987;SDS011;12775;46.994;15.498;2022-10-26T07:40:40;7.08;;;6.14;;
1987;SDS011;12775;46.994;15.498;2022-10-26T07:43:06;8.92;;;8.06;;
1987;SDS011;12775;46.994;15.498;2022-10-26T07:45:33;7.56;;;6.86;;
1987;SDS011;12775;46.994;15.498;2022-10-26T07:48:00;8.48;;;6.90;;
1987;SDS011;12775;46.994;15.498;2022-10-26T07:50:26;6.16;;;5.56;;
1987;SDS011;12775;46.994;15.498;2022-10-26T07:52:53;6.24;;;5.46;;
1987;SDS011;12775;46.994;15.498;2022-10-26T07:55:19;6.54;;;5.94;;
1987;SDS011;12775;46.994;15.498;2022-10-26T07:57:46;8.24;;;7.64;;
1987;SDS011;12775;46.994;15.498;2022-10-26T08:00:13;6.38;;;5.76;;
1987;SDS011;12775;46.994;15.498;2022-10-26T08:02:41;8.26;;;7.12;;
1987;SDS011;12775;46.994;15.498;2022-10-26T08:05:07;7.06;;;6.06;;
1987;SDS011;12775;46.994;15.498;2022-10-26T08:07:39;6.62;;;5.86;;
1987;SDS011;12775;46.994;15.498;2022-10-26T08:10:01;7.60;;;5.42;;
1987;SDS011;12775;46.994;15.498;2022-10-26T08:12:29;7.98;;;6.58;;
1987;SDS011;12775;46.994;15.498;2022-10-26T08:14:56;6.92;;;6.32;;
1987;SDS011;12775;46.994;15.498;2022-10-26T08:17:22;8.56;;;7.08;;
1987;SDS011;12775;46.994;15.498;2022-10-26T08:19:49;6.98;;;6.20;;
1987;SDS011;12775;46.994;15.498;2022-10-26T08:22:15;6.70;;;5.46;;
1987;SDS011;12775;46.994;15.498;2022-10-26T08:24:42;6.30;;;5.28;;
1987;SDS011;12775;46.994;15.498;2022-10-26T08:27:09;6.58;;;5.60;;
1987;SDS011;12775;46.994;15.498;2022-10-26T08:29:35;5.88;;;5.28;;
1987;SDS011;12775;46.994;15.498;2022-10-26T08:32:02;8.54;;;5.58;;
1987;SDS011;12775;46.994;15.498;2022-10-26T08:34:28;6.78;;;6.18;;
1987;SDS011;12775;46.994;15.498;2022-10-26T08:36:55;6.62;;;6.00;;
1987;SDS011;12775;46.994;15.498;2022-10-26T08:39:22;5.72;;;5.22;;
1987;SDS011;12775;46.994;15.498;2022-10-26T08:41:48;7.76;;;6.74;;
1987;SDS011;12775;46.994;15.498;2022-10-26T08:47:03;7.30;;;6.58;;
1987;SDS011;12775;46.994;15.498;2022-10-26T08:49:31;8.28;;;6.28;;
1987;SDS011;12775;46.994;15.498;2022-10-26T08:51:59;7.70;;;6.90;;
1987;SDS011;12775;46.994;15.498;2022-10-26T08:54:33;7.58;;;6.88;;
1987;SDS011;12775;46.994;15.498;2022-10-26T08:57:00;10.10;;;9.34;;
1987;SDS011;12775;46.994;15.498;2022-10-26T08:59:29;9.18;;;8.44;;
1987;SDS011;12775;46.994;15.498;2022-10-26T09:01:55;10.84;;;9.40;;
1987;SDS011;12775;46.994;15.498;2022-10-26T09:04:24;9.30;;;8.40;;
1987;SDS011;12775;46.994;15.498;2022-10-26T09:06:55;11.48;;;9.50;;
1987;SDS011;12775;46.994;15.498;2022-10-26T09:09:24;8.70;;;7.90;;
1987;SDS011;12775;46.994;15.498;2022-10-26T09:14:38;13.18;;;7.68;;
1987;SDS011;12775;46.994;15.498;2022-10-26T09:17:10;13.60;;;8.42;;
1987;SDS011;12775;46.994;15.498;2022-10-26T09:19:44;8.00;;;6.80;;
1987;SDS011;12775;46.994;15.498;2022-10-26T09:22:35;7.86;;;7.18;;
1987;SDS011;12775;46.994;15.498;2022-10-26T09:25:00;11.34;;;7.52;;
1987;SDS011;12775;46.994;15.498;2022-10-26T09:27:26;9.08;;;7.56;;
1987;SDS011;12775;46.994;15.498;2022-10-26T09:29:52;7.66;;;6.86;;
1987;SDS011;12775;46.994;15.498;2022-10-26T09:32:20;6.98;;;6.28;;
1987;SDS011;12775;46.994;15.498;2022-10-26T09:34:52;6.82;;;5.96;;
1987;SDS011;12775;46.994;15.498;2022-10-26T09:37:22;12.68;;;6.66;;
1987;SDS011;12775;46.994;15.498;2022-10-26T09:39:53;12.00;;;7.32;;
1987;SDS011;12775;46.994;15.498;2022-10-26T09:42:20;7.28;;;6.18;;
1987;SDS011;12775;46.994;15.498;2022-10-26T09:44:54;7.56;;;6.64;;
1987;SDS011;12775;46.994;15.498;2022-10-26T09:47:28;8.12;;;7.28;;
1987;SDS011;12775;46.994;15.498;2022-10-26T09:50:11;8.90;;;8.00;;
1987;SDS011;12775;46.994;15.498;2022-10-26T09:52:32;10.32;;;8.18;;
1987;SDS011;12775;46.994;15.498;2022-10-26T09:54:59;10.20;;;8.22;;
1987;SDS011;12775;46.994;15.498;2022-10-26T09:57:25;10.80;;;9.66;;
1987;SDS011;12775;46.994;15.498;2022-10-26T09:59:52;10.88;;;8.76;;
1987;SDS011;12775;46.994;15.498;2022-10-26T10:04:57;11.48;;;7.38;;
1987;SDS011;12775;46.994;15.498;2022-10-26T10:07:24;7.80;;;7.12;;
1987;SDS011;12775;46.994;15.498;2022-10-26T10:12:28;8.74;;;7.92;;
1987;SDS011;12775;46.994;15.498;2022-10-26T10:14:55;7.86;;;6.76;;
1987;SDS011;12775;46.994;15.498;2022-10-26T10:17:22;7.66;;;6.70;;
1987;SDS011;12775;46.994;15.498;2022-10-26T10:19:48;6.38;;;5.54;;
1987;SDS011;12775;46.994;15.498;2022-10-26T10:22:18;6.74;;;5.50;;
1987;SDS011;12775;46.994;15.498;2022-10-26T10:27:18;6.28;;;5.68;;
1987;SDS011;12775;46.994;15.498;2022-10-26T10:29:48;7.52;;;6.76;;
1987;SDS011;12775;46.994;15.498;2022-10-26T10:32:16;8.06;;;6.70;;
1987;SDS011;12775;46.994;15.498;2022-10-26T10:34:44;6.68;;;6.18;;
1987;SDS011;12775;46.994;15.498;2022-10-26T10:37:32;7.42;;;5.92;;
1987;SDS011;12775;46.994;15.498;2022-10-26T10:39:57;7.94;;;5.78;;
1987;SDS011;12775;46.994;15.498;2022-10-26T10:42:26;6.38;;;5.86;;
1987;SDS011;12775;46.994;15.498;2022-10-26T10:44:53;5.28;;;4.78;;
1987;SDS011;12775;46.994;15.498;2022-10-26T10:47:21;5.40;;;4.90;;
1987;SDS011;12775;46.994;15.498;2022-10-26T10:49:51;5.38;;;4.94;;
1987;SDS011;12775;46.994;15.498;2022-10-26T10:52:21;9.18;;;5.94;;
1987;SDS011;12775;46.994;15.498;2022-10-26T10:54:48;6.94;;;6.22;;
1987;SDS011;12775;46.994;15.498;2022-10-26T10:57:22;7.60;;;5.32;;
1987;SDS011;12775;46.994;15.498;2022-10-26T10:59:53;6.72;;;4.72;;
1987;SDS011;12775;46.994;15.498;2022-10-26T11:02:27;5.02;;;4.00;;
1987;SDS011;12775;46.994;15.498;2022-10-26T11:06:15;4.90;;;4.50;;
1987;SDS011;12775;46.994;15.498;2022-10-26T11:08:12;4.76;;;3.56;;
1987;SDS011;12775;46.994;15.498;2022-10-26T11:10:39;6.18;;;4.38;;
1987;SDS011;12775;46.994;15.498;2022-10-26T11:13:07;4.16;;;3.86;;
1987;SDS011;12775;46.994;15.498;2022-10-26T11:15:32;4.80;;;4.32;;
1987;SDS011;12775;46.994;15.498;2022-10-26T11:18:03;5.80;;;3.28;;
1987;SDS011;12775;46.994;15.498;2022-10-26T11:20:34;4.52;;;3.54;;
1987;SDS011;12775;46.994;15.498;2022-10-26T11:23:11;5.58;;;4.92;;
1987;SDS011;12775;46.994;15.498;2022-10-26T11:25:43;7.00;;;4.78;;
1987;SDS011;12775;46.994;15.498;2022-10-26T11:28:13;5.78;;;4.50;;
1987;SDS011;12775;46.994;15.498;2022-10-26T11:30:40;6.66;;;4.78;;
1987;SDS011;12775;46.994;15.498;2022-10-26T11:33:08;5.96;;;5.00;;
1987;SDS011;12775;46.994;15.498;2022-10-26T11:35:35;4.90;;;4.46;;
1987;SDS011;12775;46.994;15.498;2022-10-26T11:38:09;6.46;;;4.42;;
1987;SDS011;12775;46.994;15.498;2022-10-26T11:40:41;4.94;;;4.22;;
1987;SDS011;12775;46.994;15.498;2022-10-26T11:43:22;5.64;;;4.62;;
1987;SDS011;12775;46.994;15.498;2022-10-26T11:45:56;4.74;;;4.06;;
1987;SDS011;12775;46.994;15.498;2022-10-26T11:48:19;4.96;;;3.92;;
1987;SDS011;12775;46.994;15.498;2022-10-26T11:50:47;4.80;;;3.88;;
1987;SDS011;12775;46.994;15.498;2022-10-26T11:53:14;5.90;;;4.54;;
1987;SDS011;12775;46.994;15.498;2022-10-26T11:55:40;4.64;;;4.10;;
1987;SDS011;12775;46.994;15.498;2022-10-26T11:58:07;5.52;;;3.74;;
1987;SDS011;12775;46.994;15.498;2022-10-26T12:00:33;3.82;;;3.52;;
1987;SDS011;12775;46.994;15.498;2022-10-26T12:03:02;4.74;;;3.78;;
1987;SDS011;12775;46.994;15.498;2022-10-26T12:05:44;4.80;;;4.20;;
1987;SDS011;12775;46.994;15.498;2022-10-26T12:08:12;11.42;;;4.00;;
1987;SDS011;12775;46.994;15.498;2022-10-26T12:10:40;5.98;;;4.50;;
1987;SDS011;12775;46.994;15.498;2022-10-26T12:13:10;4.54;;;4.02;;
1987;SDS011;12775;46.994;15.498;2022-10-26T12:15:42;4.66;;;3.50;;
1987;SDS011;12775;46.994;15.498;2022-10-26T12:18:10;4.36;;;3.88;;
1987;SDS011;12775;46.994;15.498;2022-10-26T12:20:51;5.22;;;3.42;;
1987;SDS011;12775;46.994;15.498;2022-10-26T12:23:17;3.94;;;3.64;;
1987;SDS011;12775;46.994;15.498;2022-10-26T12:25:44;6.46;;;3.90;;
1987;SDS011;12775;46.994;15.498;2022-10-26T12:28:36;4.14;;;3.74;;
1987;SDS011;12775;46.994;15.498;2022-10-26T12:30:48;3.20;;;2.74;;
1987;SDS011;12775;46.994;15.498;2022-10-26T12:35:52;3.90;;;3.22;;
1987;SDS011;12775;46.994;15.498;2022-10-26T12:38:53;3.12;;;2.80;;
1987;SDS011;12775;46.994;15.498;2022-10-26T12:41:17;3.48;;;3.18;;
1987;SDS011;12775;46.994;15.498;2022-10-26T12:43:47;4.60;;;3.22;;
1987;SDS011;12775;46.994;15.498;2022-10-26T12:49:06;2.92;;;2.56;;
1987;SDS011;12775;46.994;15.498;2022-10-26T12:54:22;2.22;;;2.00;;
1987;SDS011;12775;46.994;15.498;2022-10-26T12:56:50;2.38;;;2.18;;
1987;SDS011;12775;46.994;15.498;2022-10-26T12:59:20;3.18;;;2.44;;
1987;SDS011;12775;46.994;15.498;2022-10-26T13:01:56;3.90;;;2.82;;
1987;SDS011;12775;46.994;15.498;2022-10-26T13:04:36;3.52;;;2.56;;
1987;SDS011;12775;46.994;15.498;2022-10-26T13:07:11;3.06;;;2.58;;
1987;SDS011;12775;46.994;15.498;2022-10-26T13:10:05;3.62;;;3.22;;
1987;SDS011;12775;46.994;15.498;2022-10-26T13:12:36;5.26;;;2.78;;
1987;SDS011;12775;46.994;15.498;2022-10-26T13:15:02;3.78;;;2.58;;
1987;SDS011;12775;46.994;15.498;2022-10-26T13:17:29;3.16;;;2.22;;
1987;SDS011;12775;46.994;15.498;2022-10-26T13:19:56;3.20;;;2.36;;
1987;SDS011;12775;46.994;15.498;2022-10-26T13:22:23;3.00;;;2.34;;
1987;SDS011;12775;46.994;15.498;2022-10-26T13:24:51;2.68;;;2.46;;
1987;SDS011;12775;46.994;15.498;2022-10-26T13:27:26;3.20;;;2.90;;
1987;SDS011;12775;46.994;15.498;2022-10-26T13:30:15;4.90;;;2.32;;
1987;SDS011;12775;46.994;15.498;2022-10-26T13:32:39;2.70;;;2.50;;
1987;SDS011;12775;46.994;15.498;2022-10-26T13:35:05;5.04;;;2.14;;
1987;SDS011;12775;46.994;15.498;2022-10-26T13:37:32;3.48;;;2.40;;
1987;SDS011;12775;46.994;15.498;2022-10-26T13:39:58;3.14;;;2.94;;
1987;SDS011;12775;46.994;15.498;2022-10-26T13:42:25;3.84;;;2.42;;
1987;SDS011;12775;46.994;15.498;2022-10-26T13:44:54;2.46;;;2.00;;
1987;SDS011;12775;46.994;15.498;2022-10-26T13:47:23;3.38;;;2.50;;
1987;SDS011;12775;46.994;15.498;2022-10-26T13:49:54;3.26;;;2.44;;
1987;SDS011;12775;46.994;15.498;2022-10-26T13:52:22;7.26;;;3.18;;
1987;SDS011;12775;46.994;15.498;2022-10-26T13:54:52;7.48;;;3.30;;
1987;SDS011;12775;46.994;15.498;2022-10-26T13:57:59;3.30;;;2.72;;
1987;SDS011;12775;46.994;15.498;2022-10-26T14:00:09;3.06;;;2.72;;
1987;SDS011;12775;46.994;15.498;2022-10-26T14:02:41;8.98;;;2.66;;
1987;SDS011;12775;46.994;15.498;2022-10-26T14:05:09;2.88;;;2.68;;
1987;SDS011;12775;46.994;15.498;2022-10-26T14:07:38;2.80;;;2.58;;
1987;SDS011;12775;46.994;15.498;2022-10-26T14:10:21;2.42;;;2.22;;
1987;SDS011;12775;46.994;15.498;2022-10-26T14:12:52;3.44;;;2.32;;
1987;SDS011;12775;46.994;15.498;2022-10-26T14:15:25;6.60;;;3.84;;
1987;SDS011;12775;46.994;15.498;2022-10-26T14:17:51;3.88;;;2.90;;
1987;SDS011;12775;46.994;15.498;2022-10-26T14:20:18;2.94;;;2.74;;
1987;SDS011;12775;46.994;15.498;2022-10-26T14:22:44;6.40;;;5.44;;
1987;SDS011;12775;46.994;15.498;2022-10-26T14:27:44;3.88;;;3.42;;
1987;SDS011;12775;46.994;15.498;2022-10-26T14:32:46;6.68;;;3.98;;
1987;SDS011;12775;46.994;15.498;2022-10-26T14:35:13;4.16;;;3.76;;
1987;SDS011;12775;46.994;15.498;2022-10-26T14:37:44;4.26;;;3.50;;
1987;SDS011;12775;46.994;15.498;2022-10-26T14:40:13;7.20;;;3.72;;
1987;SDS011;12775;46.994;15.498;2022-10-26T14:42:41;3.18;;;2.90;;
1987;SDS011;12775;46.994;15.498;2022-10-26T14:47:53;3.04;;;2.54;;
1987;SDS011;12775;46.994;15.498;2022-10-26T14:50:20;4.56;;;2.88;;
1987;SDS011;12775;46.994;15.498;2022-10-26T14:52:48;4.58;;;2.76;;
1987;SDS011;12775;46.994;15.498;2022-10-26T14:55:16;5.72;;;3.50;;
1987;SDS011;12775;46.994;15.498;2022-10-26T14:57:43;6.42;;;3.08;;
1987;SDS011;12775;46.994;15.498;2022-10-26T15:00:12;3.44;;;2.42;;
1987;SDS011;12775;46.994;15.498;2022-10-26T15:02:37;3.06;;;2.76;;
1987;SDS011;12775;46.994;15.498;2022-10-26T15:05:35;3.18;;;2.88;;
1987;SDS011;12775;46.994;15.498;2022-10-26T15:07:53;2.98;;;2.74;;
1987;SDS011;12775;46.994;15.498;2022-10-26T15:12:58;4.62;;;3.80;;
1987;SDS011;12775;46.994;15.498;2022-10-26T15:15:25;3.44;;;3.14;;
1987;SDS011;12775;46.994;15.498;2022-10-26T15:17:52;5.70;;;3.54;;
1987;SDS011;12775;46.994;15.498;2022-10-26T15:20:20;3.42;;;2.94;;
1987;SDS011;12775;46.994;15.498;2022-10-26T15:22:49;5.80;;;4.26;;
1987;SDS011;12775;46.994;15.498;2022-10-26T15:25:18;4.42;;;4.00;;
1987;SDS011;12775;46.994;15.498;2022-10-26T15:27:44;3.94;;;2.92;;
1987;SDS011;12775;46.994;15.498;2022-10-26T15:30:19;4.96;;;4.48;;
1987;SDS011;12775;46.994;15.498;2022-10-26T15:32:47;7.80;;;3.30;;
1987;SDS011;12775;46.994;15.498;2022-10-26T15:35:14;4.62;;;3.84;;
1987;SDS011;12775;46.994;15.498;2022-10-26T15:37:41;5.76;;;4.82;;
1987;SDS011;12775;46.994;15.498;2022-10-26T15:40:07;8.56;;;5.06;;
1987;SDS011;12775;46.994;15.498;2022-10-26T15:42:34;6.22;;;5.02;;